sensor_id;sensor_type;location;lat;lon;timestamp;pressure;altitude;pressure_sealevel;temperature
68952;BMP180;56000;51.146;17.112;2022-12-07T00:02:08;99745.00;;;2.80
68952;BMP180;56000;51.146;17.112;2022-12-07T00:04:41;99742.20;;;2.80
68952;BMP180;56000;51.146;17.112;2022-12-07T00:07:15;99741.20;;;2.80
68952;BMP180;56000;51.146;17.112;2022-12-07T00:09:47;99739.00;;;2.80
68952;BMP180;56000;51.146;17.112;2022-12-07T00:12:21;99739.40;;;2.80
68952;BMP180;56000;51.146;17.112;2022-12-07T00:14:53;99732.20;;;2.80
68952;BMP180;56000;51.146;17.112;2022-12-07T00:17:26;99734.60;;;2.80
68952;BMP180;56000;51.146;17.112;2022-12-07T00:19:59;99740.40;;;2.80
68952;BMP180;56000;51.146;17.112;2022-12-07T00:22:33;99733.00;;;2.80
68952;BMP180;56000;51.146;17.112;2022-12-07T00:25:07;99727.60;;;2.80
68952;BMP180;56000;51.146;17.112;2022-12-07T00:27:40;99726.40;;;2.80
68952;BMP180;56000;51.146;17.112;2022-12-07T00:30:14;99723.60;;;2.80
68952;BMP180;56000;51.146;17.112;2022-12-07T00:32:47;99723.40;;;2.80
68952;BMP180;56000;51.146;17.112;2022-12-07T00:35:20;99723.00;;;2.80
68952;BMP180;56000;51.146;17.112;2022-12-07T00:37:53;99720.00;;;2.80
68952;BMP180;56000;51.146;17.112;2022-12-07T00:40:26;99721.20;;;2.80
68952;BMP180;56000;51.146;17.112;2022-12-07T00:42:59;99719.80;;;2.80
68952;BMP180;56000;51.146;17.112;2022-12-07T00:45:32;99715.00;;;2.80
68952;BMP180;56000;51.146;17.112;2022-12-07T00:48:05;99717.80;;;2.80
68952;BMP180;56000;51.146;17.112;2022-12-07T00:50:38;99716.40;;;2.80
68952;BMP180;56000;51.146;17.112;2022-12-07T00:53:11;99714.00;;;2.80
68952;BMP180;56000;51.146;17.112;2022-12-07T00:55:45;99717.00;;;2.80
68952;BMP180;56000;51.146;17.112;2022-12-07T00:58:18;99717.40;;;2.80
68952;BMP180;56000;51.146;17.112;2022-12-07T01:00:51;99721.00;;;2.80
68952;BMP180;56000;51.146;17.112;2022-12-07T01:03:24;99721.80;;;2.80
68952;BMP180;56000;51.146;17.112;2022-12-07T01:05:58;99721.40;;;2.80
68952;BMP180;56000;51.146;17.112;2022-12-07T01:08:31;99723.40;;;2.80
68952;BMP180;56000;51.146;17.112;2022-12-07T01:11:06;99726.40;;;2.80
68952;BMP180;56000;51.146;17.112;2022-12-07T01:13:40;99720.40;;;2.80
68952;BMP180;56000;51.146;17.112;2022-12-07T01:16:16;99717.80;;;2.80
68952;BMP180;56000;51.146;17.112;2022-12-07T01:18:51;99719.40;;;2.80
68952;BMP180;56000;51.146;17.112;2022-12-07T01:21:27;99717.60;;;2.80
68952;BMP180;56000;51.146;17.112;2022-12-07T01:24:01;99716.80;;;2.80
68952;BMP180;56000;51.146;17.112;2022-12-07T01:26:34;99712.20;;;2.80
68952;BMP180;56000;51.146;17.112;2022-12-07T01:29:07;99710.20;;;2.80
68952;BMP180;56000;51.146;17.112;2022-12-07T01:31:40;99710.00;;;2.80
68952;BMP180;56000;51.146;17.112;2022-12-07T01:34:13;99714.20;;;2.80
68952;BMP180;56000;51.146;17.112;2022-12-07T01:36:46;99711.60;;;2.80
68952;BMP180;56000;51.146;17.112;2022-12-07T01:39:19;99713.40;;;2.80
68952;BMP180;56000;51.146;17.112;2022-12-07T01:41:52;99712.80;;;2.80
68952;BMP180;56000;51.146;17.112;2022-12-07T01:44:29;99709.40;;;2.80
68952;BMP180;56000;51.146;17.112;2022-12-07T01:47:06;99714.80;;;2.78
68952;BMP180;56000;51.146;17.112;2022-12-07T01:49:42;99711.60;;;2.74
68952;BMP180;56000;51.146;17.112;2022-12-07T01:52:20;99715.20;;;2.72
68952;BMP180;56000;51.146;17.112;2022-12-07T01:54:58;99716.20;;;2.70
68952;BMP180;56000;51.146;17.112;2022-12-07T01:57:34;99713.40;;;2.70
68952;BMP180;56000;51.146;17.112;2022-12-07T02:00:12;99717.60;;;2.70
68952;BMP180;56000;51.146;17.112;2022-12-07T02:02:49;99716.40;;;2.70
68952;BMP180;56000;51.146;17.112;2022-12-07T02:05:24;99714.20;;;2.70
68952;BMP180;56000;51.146;17.112;2022-12-07T02:07:59;99716.80;;;2.70
68952;BMP180;56000;51.146;17.112;2022-12-07T02:10:34;99716.40;;;2.70
68952;BMP180;56000;51.146;17.112;2022-12-07T02:13:12;99714.60;;;2.70
68952;BMP180;56000;51.146;17.112;2022-12-07T02:15:58;99716.20;;;2.70
68952;BMP180;56000;51.146;17.112;2022-12-07T02:18:48;99718.60;;;2.70
68952;BMP180;56000;51.146;17.112;2022-12-07T02:21:32;99714.80;;;2.70
68952;BMP180;56000;51.146;17.112;2022-12-07T02:24:48;99712.60;;;2.70
68952;BMP180;56000;51.146;17.112;2022-12-07T02:27:47;99714.20;;;2.70
68952;BMP180;56000;51.146;17.112;2022-12-07T02:30:25;99710.20;;;2.60
68952;BMP180;56000;51.146;17.112;2022-12-07T02:33:03;99702.60;;;2.60
68952;BMP180;56000;51.146;17.112;2022-12-07T02:35:41;99703.00;;;2.60
68952;BMP180;56000;51.146;17.112;2022-12-07T02:38:22;99706.40;;;2.60
68952;BMP180;56000;51.146;17.112;2022-12-07T02:41:02;99707.00;;;2.58
68952;BMP180;56000;51.146;17.112;2022-12-07T02:43:40;99711.20;;;2.52
68952;BMP180;56000;51.146;17.112;2022-12-07T02:46:17;99707.40;;;2.50
68952;BMP180;56000;51.146;17.112;2022-12-07T02:48:52;99709.60;;;2.50
68952;BMP180;56000;51.146;17.112;2022-12-07T02:51:29;99703.60;;;2.50
68952;BMP180;56000;51.146;17.112;2022-12-07T02:54:02;99701.00;;;2.50
68952;BMP180;56000;51.146;17.112;2022-12-07T02:56:42;99700.60;;;2.50
68952;BMP180;56000;51.146;17.112;2022-12-07T02:59:29;99702.20;;;2.50
68952;BMP180;56000;51.146;17.112;2022-12-07T03:02:15;99703.40;;;2.50
68952;BMP180;56000;51.146;17.112;2022-12-07T03:04:59;99702.40;;;2.48
68952;BMP180;56000;51.146;17.112;2022-12-07T03:07:42;99698.60;;;2.40
68952;BMP180;56000;51.146;17.112;2022-12-07T03:10:24;99699.00;;;2.40
68952;BMP180;56000;51.146;17.112;2022-12-07T03:13:07;99702.80;;;2.40
68952;BMP180;56000;51.146;17.112;2022-12-07T03:15:49;99701.60;;;2.40
68952;BMP180;56000;51.146;17.112;2022-12-07T03:18:28;99707.00;;;2.40
68952;BMP180;56000;51.146;17.112;2022-12-07T03:21:09;99706.20;;;2.40
68952;BMP180;56000;51.146;17.112;2022-12-07T03:23:46;99697.80;;;2.40
68952;BMP180;56000;51.146;17.112;2022-12-07T03:26:23;99702.80;;;2.40
68952;BMP180;56000;51.146;17.112;2022-12-07T03:29:00;99698.60;;;2.40
68952;BMP180;56000;51.146;17.112;2022-12-07T03:31:36;99696.80;;;2.40
68952;BMP180;56000;51.146;17.112;2022-12-07T03:34:14;99701.40;;;2.40
68952;BMP180;56000;51.146;17.112;2022-12-07T03:36:52;99696.20;;;2.40
68952;BMP180;56000;51.146;17.112;2022-12-07T03:39:30;99694.40;;;2.40
68952;BMP180;56000;51.146;17.112;2022-12-07T03:42:07;99690.20;;;2.40
68952;BMP180;56000;51.146;17.112;2022-12-07T03:44:42;99684.60;;;2.40
68952;BMP180;56000;51.146;17.112;2022-12-07T03:47:23;99677.20;;;2.40
68952;BMP180;56000;51.146;17.112;2022-12-07T03:50:04;99675.80;;;2.40
68952;BMP180;56000;51.146;17.112;2022-12-07T03:52:42;99676.20;;;2.40
68952;BMP180;56000;51.146;17.112;2022-12-07T03:55:22;99673.60;;;2.40
68952;BMP180;56000;51.146;17.112;2022-12-07T03:58:01;99677.80;;;2.40
68952;BMP180;56000;51.146;17.112;2022-12-07T04:00:35;99675.80;;;2.40
68952;BMP180;56000;51.146;17.112;2022-12-07T04:03:08;99675.00;;;2.40
68952;BMP180;56000;51.146;17.112;2022-12-07T04:05:41;99678.40;;;2.40
68952;BMP180;56000;51.146;17.112;2022-12-07T04:08:15;99679.20;;;2.40
68952;BMP180;56000;51.146;17.112;2022-12-07T04:10:48;99674.80;;;2.40
68952;BMP180;56000;51.146;17.112;2022-12-07T04:13:20;99674.80;;;2.40
68952;BMP180;56000;51.146;17.112;2022-12-07T04:15:53;99678.00;;;2.40
68952;BMP180;56000;51.146;17.112;2022-12-07T04:18:26;99679.00;;;2.40
68952;BMP180;56000;51.146;17.112;2022-12-07T04:20:59;99678.80;;;2.40
68952;BMP180;56000;51.146;17.112;2022-12-07T04:23:32;99681.60;;;2.40
68952;BMP180;56000;51.146;17.112;2022-12-07T04:26:05;99679.00;;;2.40
68952;BMP180;56000;51.146;17.112;2022-12-07T04:28:38;99682.00;;;2.40
68952;BMP180;56000;51.146;17.112;2022-12-07T04:31:11;99686.00;;;2.40
68952;BMP180;56000;51.146;17.112;2022-12-07T04:33:44;99684.20;;;2.40
68952;BMP180;56000;51.146;17.112;2022-12-07T04:36:17;99682.60;;;2.40
68952;BMP180;56000;51.146;17.112;2022-12-07T04:38:52;99679.20;;;2.40
68952;BMP180;56000;51.146;17.112;2022-12-07T04:41:26;99682.20;;;2.40
68952;BMP180;56000;51.146;17.112;2022-12-07T04:44:02;99675.60;;;2.40
68952;BMP180;56000;51.146;17.112;2022-12-07T04:46:35;99676.60;;;2.40
68952;BMP180;56000;51.146;17.112;2022-12-07T04:49:08;99674.60;;;2.40
68952;BMP180;56000;51.146;17.112;2022-12-07T04:51:42;99675.20;;;2.40
68952;BMP180;56000;51.146;17.112;2022-12-07T04:54:15;99673.60;;;2.40
68952;BMP180;56000;51.146;17.112;2022-12-07T04:56:48;99673.80;;;2.40
68952;BMP180;56000;51.146;17.112;2022-12-07T04:59:21;99672.80;;;2.40
68952;BMP180;56000;51.146;17.112;2022-12-07T05:01:54;99671.40;;;2.40
68952;BMP180;56000;51.146;17.112;2022-12-07T05:04:27;99673.40;;;2.40
68952;BMP180;56000;51.146;17.112;2022-12-07T05:07:00;99670.00;;;2.40
68952;BMP180;56000;51.146;17.112;2022-12-07T05:09:33;99668.40;;;2.40
68952;BMP180;56000;51.146;17.112;2022-12-07T05:12:06;99671.00;;;2.40
68952;BMP180;56000;51.146;17.112;2022-12-07T05:14:39;99669.40;;;2.40
68952;BMP180;56000;51.146;17.112;2022-12-07T05:17:12;99665.20;;;2.36
68952;BMP180;56000;51.146;17.112;2022-12-07T05:19:45;99664.60;;;2.36
68952;BMP180;56000;51.146;17.112;2022-12-07T05:22:17;99668.00;;;2.40
68952;BMP180;56000;51.146;17.112;2022-12-07T05:24:50;99666.80;;;2.40
68952;BMP180;56000;51.146;17.112;2022-12-07T05:27:23;99668.80;;;2.40
68952;BMP180;56000;51.146;17.112;2022-12-07T05:29:56;99664.00;;;2.40
68952;BMP180;56000;51.146;17.112;2022-12-07T05:32:30;99667.80;;;2.40
68952;BMP180;56000;51.146;17.112;2022-12-07T05:35:03;99662.20;;;2.40
68952;BMP180;56000;51.146;17.112;2022-12-07T05:37:36;99662.60;;;2.50
68952;BMP180;56000;51.146;17.112;2022-12-07T05:40:12;99665.20;;;2.50
68952;BMP180;56000;51.146;17.112;2022-12-07T05:42:45;99665.20;;;2.50
68952;BMP180;56000;51.146;17.112;2022-12-07T05:45:18;99668.20;;;2.50
68952;BMP180;56000;51.146;17.112;2022-12-07T05:47:51;99661.00;;;2.50
68952;BMP180;56000;51.146;17.112;2022-12-07T05:50:24;99667.60;;;2.50
68952;BMP180;56000;51.146;17.112;2022-12-07T05:53:03;99662.60;;;2.60
68952;BMP180;56000;51.146;17.112;2022-12-07T05:55:36;99666.40;;;2.60
68952;BMP180;56000;51.146;17.112;2022-12-07T05:58:09;99674.40;;;2.60
68952;BMP180;56000;51.146;17.112;2022-12-07T06:01:00;99669.60;;;2.60
68952;BMP180;56000;51.146;17.112;2022-12-07T06:03:33;99672.80;;;2.60
68952;BMP180;56000;51.146;17.112;2022-12-07T06:06:06;99662.40;;;2.64
68952;BMP180;56000;51.146;17.112;2022-12-07T06:08:39;99670.60;;;2.68
68952;BMP180;56000;51.146;17.112;2022-12-07T06:11:12;99666.00;;;2.70
68952;BMP180;56000;51.146;17.112;2022-12-07T06:14:03;99666.80;;;2.70
68952;BMP180;56000;51.146;17.112;2022-12-07T06:16:35;99659.60;;;2.64
68952;BMP180;56000;51.146;17.112;2022-12-07T06:19:09;99665.60;;;2.64
68952;BMP180;56000;51.146;17.112;2022-12-07T06:21:42;99661.80;;;2.60
68952;BMP180;56000;51.146;17.112;2022-12-07T06:24:17;99661.00;;;2.60
68952;BMP180;56000;51.146;17.112;2022-12-07T06:26:50;99662.20;;;2.60
68952;BMP180;56000;51.146;17.112;2022-12-07T06:29:23;99653.40;;;2.60
68952;BMP180;56000;51.146;17.112;2022-12-07T06:31:56;99657.80;;;2.60
68952;BMP180;56000;51.146;17.112;2022-12-07T06:34:29;99666.40;;;2.64
68952;BMP180;56000;51.146;17.112;2022-12-07T06:37:02;99666.60;;;2.64
68952;BMP180;56000;51.146;17.112;2022-12-07T06:39:35;99662.40;;;2.60
68952;BMP180;56000;51.146;17.112;2022-12-07T06:42:08;99668.60;;;2.60
68952;BMP180;56000;51.146;17.112;2022-12-07T06:44:41;99668.40;;;2.66
68952;BMP180;56000;51.146;17.112;2022-12-07T06:47:14;99669.00;;;2.66
68952;BMP180;56000;51.146;17.112;2022-12-07T06:50:10;99673.40;;;2.70
68952;BMP180;56000;51.146;17.112;2022-12-07T06:52:43;99670.20;;;2.70
68952;BMP180;56000;51.146;17.112;2022-12-07T06:55:16;99671.80;;;2.70
68952;BMP180;56000;51.146;17.112;2022-12-07T06:57:49;99668.80;;;2.70
68952;BMP180;56000;51.146;17.112;2022-12-07T07:00:23;99676.00;;;2.70
68952;BMP180;56000;51.146;17.112;2022-12-07T07:02:56;99670.80;;;2.70
68952;BMP180;56000;51.146;17.112;2022-12-07T07:05:30;99674.20;;;2.70
68952;BMP180;56000;51.146;17.112;2022-12-07T07:08:03;99673.80;;;2.70
68952;BMP180;56000;51.146;17.112;2022-12-07T07:10:52;99669.00;;;2.70
68952;BMP180;56000;51.146;17.112;2022-12-07T07:13:25;99672.40;;;2.70
68952;BMP180;56000;51.146;17.112;2022-12-07T07:15:58;99660.20;;;2.70
68952;BMP180;56000;51.146;17.112;2022-12-07T07:18:32;99660.00;;;2.72
68952;BMP180;56000;51.146;17.112;2022-12-07T07:21:05;99663.20;;;2.78
68952;BMP180;56000;51.146;17.112;2022-12-07T07:23:38;99661.00;;;2.80
68952;BMP180;56000;51.146;17.112;2022-12-07T07:26:11;99659.60;;;2.80
68952;BMP180;56000;51.146;17.112;2022-12-07T07:28:50;99661.80;;;2.80
68952;BMP180;56000;51.146;17.112;2022-12-07T07:31:23;99659.00;;;2.80
68952;BMP180;56000;51.146;17.112;2022-12-07T07:33:56;99662.40;;;2.80
68952;BMP180;56000;51.146;17.112;2022-12-07T07:36:29;99660.00;;;2.80
68952;BMP180;56000;51.146;17.112;2022-12-07T07:39:02;99662.00;;;2.90
68952;BMP180;56000;51.146;17.112;2022-12-07T07:41:35;99664.80;;;2.96
68952;BMP180;56000;51.146;17.112;2022-12-07T07:44:08;99661.60;;;3.10
68952;BMP180;56000;51.146;17.112;2022-12-07T07:46:42;99659.80;;;3.24
68952;BMP180;56000;51.146;17.112;2022-12-07T07:49:18;99665.00;;;3.40
68952;BMP180;56000;51.146;17.112;2022-12-07T07:51:51;99661.80;;;3.50
68952;BMP180;56000;51.146;17.112;2022-12-07T07:54:23;99651.40;;;3.56
68952;BMP180;56000;51.146;17.112;2022-12-07T07:56:56;99653.80;;;3.60
68952;BMP180;56000;51.146;17.112;2022-12-07T07:59:29;99656.00;;;3.62
68952;BMP180;56000;51.146;17.112;2022-12-07T08:02:02;99657.20;;;3.60
68952;BMP180;56000;51.146;17.112;2022-12-07T08:04:35;99654.40;;;3.70
68952;BMP180;56000;51.146;17.112;2022-12-07T08:07:08;99657.80;;;3.92
68952;BMP180;56000;51.146;17.112;2022-12-07T08:09:41;99656.20;;;4.30
68952;BMP180;56000;51.146;17.112;2022-12-07T08:12:14;99659.40;;;4.30
68952;BMP180;56000;51.146;17.112;2022-12-07T08:14:47;99669.40;;;4.10
68952;BMP180;56000;51.146;17.112;2022-12-07T08:17:20;99670.20;;;4.00
68952;BMP180;56000;51.146;17.112;2022-12-07T08:19:53;99673.20;;;3.96
68952;BMP180;56000;51.146;17.112;2022-12-07T08:22:26;99667.80;;;3.90
68952;BMP180;56000;51.146;17.112;2022-12-07T08:24:59;99667.80;;;3.90
68952;BMP180;56000;51.146;17.112;2022-12-07T08:27:32;99665.20;;;3.90
68952;BMP180;56000;51.146;17.112;2022-12-07T08:30:06;99666.20;;;3.80
68952;BMP180;56000;51.146;17.112;2022-12-07T08:32:39;99665.60;;;3.74
68952;BMP180;56000;51.146;17.112;2022-12-07T08:35:13;99665.00;;;3.70
68952;BMP180;56000;51.146;17.112;2022-12-07T08:37:46;99666.20;;;3.70
68952;BMP180;56000;51.146;17.112;2022-12-07T08:40:19;99662.00;;;3.70
68952;BMP180;56000;51.146;17.112;2022-12-07T08:42:53;99658.20;;;3.88
68952;BMP180;56000;51.146;17.112;2022-12-07T08:45:26;99646.80;;;4.86
68952;BMP180;56000;51.146;17.112;2022-12-07T08:48:04;99645.00;;;6.22
68952;BMP180;56000;51.146;17.112;2022-12-07T08:50:39;99649.80;;;6.80
68952;BMP180;56000;51.146;17.112;2022-12-07T08:53:19;99645.60;;;6.60
68952;BMP180;56000;51.146;17.112;2022-12-07T08:55:53;99647.40;;;6.30
68952;BMP180;56000;51.146;17.112;2022-12-07T08:58:27;99640.00;;;6.10
68952;BMP180;56000;51.146;17.112;2022-12-07T09:00:59;99641.40;;;5.90
68952;BMP180;56000;51.146;17.112;2022-12-07T09:03:33;99637.40;;;6.00
68952;BMP180;56000;51.146;17.112;2022-12-07T09:06:06;99637.20;;;6.68
68952;BMP180;56000;51.146;17.112;2022-12-07T09:08:43;99631.60;;;7.50
68952;BMP180;56000;51.146;17.112;2022-12-07T09:11:16;99634.60;;;7.90
68952;BMP180;56000;51.146;17.112;2022-12-07T09:13:55;99629.80;;;7.80
68952;BMP180;56000;51.146;17.112;2022-12-07T09:16:28;99634.80;;;7.64
68952;BMP180;56000;51.146;17.112;2022-12-07T09:19:01;99626.40;;;7.50
68952;BMP180;56000;51.146;17.112;2022-12-07T09:21:34;99620.80;;;7.60
68952;BMP180;56000;51.146;17.112;2022-12-07T09:24:08;99609.80;;;7.80
68952;BMP180;56000;51.146;17.112;2022-12-07T09:26:41;99610.60;;;7.86
68952;BMP180;56000;51.146;17.112;2022-12-07T09:29:14;99613.80;;;8.10
68952;BMP180;56000;51.146;17.112;2022-12-07T09:31:46;99610.20;;;8.10
68952;BMP180;56000;51.146;17.112;2022-12-07T09:34:20;99606.20;;;8.30
68952;BMP180;56000;51.146;17.112;2022-12-07T09:36:53;99596.40;;;8.74
68952;BMP180;56000;51.146;17.112;2022-12-07T09:39:26;99603.00;;;9.36
68952;BMP180;56000;51.146;17.112;2022-12-07T09:42:02;99593.80;;;9.06
68952;BMP180;56000;51.146;17.112;2022-12-07T09:44:36;99589.60;;;8.64
68952;BMP180;56000;51.146;17.112;2022-12-07T09:47:11;99595.80;;;8.30
68952;BMP180;56000;51.146;17.112;2022-12-07T09:49:44;99584.20;;;7.94
68952;BMP180;56000;51.146;17.112;2022-12-07T09:52:29;99580.20;;;7.56
68952;BMP180;56000;51.146;17.112;2022-12-07T09:55:15;99572.60;;;7.08
68952;BMP180;56000;51.146;17.112;2022-12-07T09:57:49;99584.60;;;6.74
68952;BMP180;56000;51.146;17.112;2022-12-07T10:00:25;99583.00;;;6.48
68952;BMP180;56000;51.146;17.112;2022-12-07T10:03:01;99586.20;;;6.30
68952;BMP180;56000;51.146;17.112;2022-12-07T10:05:38;99580.80;;;6.20
68952;BMP180;56000;51.146;17.112;2022-12-07T10:08:13;99574.40;;;6.22
68952;BMP180;56000;51.146;17.112;2022-12-07T10:10:51;99566.60;;;6.30
68952;BMP180;56000;51.146;17.112;2022-12-07T10:13:37;99558.80;;;6.40
68952;BMP180;56000;51.146;17.112;2022-12-07T10:16:31;99552.60;;;6.30
68952;BMP180;56000;51.146;17.112;2022-12-07T10:22:14;99535.00;;;6.10
68952;BMP180;56000;51.146;17.112;2022-12-07T10:24:49;99533.00;;;6.00
68952;BMP180;56000;51.146;17.112;2022-12-07T10:27:29;99530.60;;;5.84
68952;BMP180;56000;51.146;17.112;2022-12-07T10:30:12;99531.00;;;5.68
68952;BMP180;56000;51.146;17.112;2022-12-07T10:32:48;99536.80;;;5.50
68952;BMP180;56000;51.146;17.112;2022-12-07T10:35:28;99541.60;;;5.40
68952;BMP180;56000;51.146;17.112;2022-12-07T10:38:07;99534.00;;;5.30
68952;BMP180;56000;51.146;17.112;2022-12-07T10:40:48;99535.40;;;5.20
68952;BMP180;56000;51.146;17.112;2022-12-07T10:43:35;99549.60;;;5.16
68952;BMP180;56000;51.146;17.112;2022-12-07T10:46:59;99547.60;;;5.06
68952;BMP180;56000;51.146;17.112;2022-12-07T10:50:17;99550.20;;;4.88
68952;BMP180;56000;51.146;17.112;2022-12-07T10:53:16;99542.60;;;4.66
68952;BMP180;56000;51.146;17.112;2022-12-07T10:59:07;99548.20;;;4.40
68952;BMP180;56000;51.146;17.112;2022-12-07T11:01:48;99550.40;;;4.40
68952;BMP180;56000;51.146;17.112;2022-12-07T11:04:33;99545.40;;;4.40
68952;BMP180;56000;51.146;17.112;2022-12-07T11:07:14;99545.60;;;4.36
68952;BMP180;56000;51.146;17.112;2022-12-07T11:10:04;99540.80;;;4.30
68952;BMP180;56000;51.146;17.112;2022-12-07T11:13:09;99539.60;;;4.30
68952;BMP180;56000;51.146;17.112;2022-12-07T11:15:57;99539.40;;;4.30
68952;BMP180;56000;51.146;17.112;2022-12-07T11:18:43;99544.80;;;4.20
68952;BMP180;56000;51.146;17.112;2022-12-07T11:21:24;99542.40;;;4.20
68952;BMP180;56000;51.146;17.112;2022-12-07T11:24:08;99542.00;;;4.20
68952;BMP180;56000;51.146;17.112;2022-12-07T11:27:04;99541.80;;;4.22
68952;BMP180;56000;51.146;17.112;2022-12-07T11:30:06;99527.40;;;4.20
68952;BMP180;56000;51.146;17.112;2022-12-07T11:32:55;99523.20;;;4.30
68952;BMP180;56000;51.146;17.112;2022-12-07T11:35:44;99521.80;;;4.40
68952;BMP180;56000;51.146;17.112;2022-12-07T11:38:22;99522.00;;;4.44
68952;BMP180;56000;51.146;17.112;2022-12-07T11:41:03;99526.20;;;4.40
68952;BMP180;56000;51.146;17.112;2022-12-07T11:43:56;99519.20;;;4.40
68952;BMP180;56000;51.146;17.112;2022-12-07T11:46:46;99520.00;;;4.40
68952;BMP180;56000;51.146;17.112;2022-12-07T11:49:31;99514.20;;;4.40
68952;BMP180;56000;51.146;17.112;2022-12-07T11:52:13;99519.40;;;4.32
68952;BMP180;56000;51.146;17.112;2022-12-07T11:54:50;99517.40;;;4.30
68952;BMP180;56000;51.146;17.112;2022-12-07T11:57:36;99507.80;;;4.30
68952;BMP180;56000;51.146;17.112;2022-12-07T12:00:18;99515.20;;;4.30
68952;BMP180;56000;51.146;17.112;2022-12-07T12:02:55;99511.60;;;4.40
68952;BMP180;56000;51.146;17.112;2022-12-07T12:05:32;99518.60;;;4.40
68952;BMP180;56000;51.146;17.112;2022-12-07T12:08:14;99513.40;;;4.30
68952;BMP180;56000;51.146;17.112;2022-12-07T12:11:21;99514.00;;;4.30
68952;BMP180;56000;51.146;17.112;2022-12-07T12:14:23;99503.00;;;4.30
68952;BMP180;56000;51.146;17.112;2022-12-07T12:17:35;99514.20;;;4.30
68952;BMP180;56000;51.146;17.112;2022-12-07T12:20:22;99521.20;;;4.30
68952;BMP180;56000;51.146;17.112;2022-12-07T12:23:00;99512.20;;;4.30
68952;BMP180;56000;51.146;17.112;2022-12-07T12:25:38;99509.40;;;4.40
68952;BMP180;56000;51.146;17.112;2022-12-07T12:28:25;99513.00;;;4.50
68952;BMP180;56000;51.146;17.112;2022-12-07T12:31:13;99510.00;;;4.50
68952;BMP180;56000;51.146;17.112;2022-12-07T12:33:50;99514.00;;;4.60
68952;BMP180;56000;51.146;17.112;2022-12-07T12:36:42;99508.00;;;4.60
68952;BMP180;56000;51.146;17.112;2022-12-07T12:39:18;99505.40;;;4.70
68952;BMP180;56000;51.146;17.112;2022-12-07T12:42:02;99510.40;;;4.70
68952;BMP180;56000;51.146;17.112;2022-12-07T12:45:05;99504.60;;;4.70
68952;BMP180;56000;51.146;17.112;2022-12-07T12:48:29;99502.00;;;4.80
68952;BMP180;56000;51.146;17.112;2022-12-07T12:51:37;99495.60;;;4.90
68952;BMP180;56000;51.146;17.112;2022-12-07T12:54:18;99489.60;;;4.90
68952;BMP180;56000;51.146;17.112;2022-12-07T12:56:58;99486.60;;;4.90
68952;BMP180;56000;51.146;17.112;2022-12-07T12:59:33;99488.40;;;4.90
68952;BMP180;56000;51.146;17.112;2022-12-07T13:02:23;99486.80;;;4.88
68952;BMP180;56000;51.146;17.112;2022-12-07T13:05:00;99497.40;;;4.80
68952;BMP180;56000;51.146;17.112;2022-12-07T13:08:14;99500.40;;;4.80
68952;BMP180;56000;51.146;17.112;2022-12-07T13:10:50;99495.60;;;4.70
68952;BMP180;56000;51.146;17.112;2022-12-07T13:13:37;99497.40;;;4.70
68952;BMP180;56000;51.146;17.112;2022-12-07T13:16:41;99499.20;;;4.60
68952;BMP180;56000;51.146;17.112;2022-12-07T13:19:54;99502.80;;;4.60
68952;BMP180;56000;51.146;17.112;2022-12-07T13:22:49;99502.80;;;4.60
68952;BMP180;56000;51.146;17.112;2022-12-07T13:25:33;99501.00;;;4.60
68952;BMP180;56000;51.146;17.112;2022-12-07T13:28:17;99505.20;;;4.60
68952;BMP180;56000;51.146;17.112;2022-12-07T13:31:15;99508.80;;;4.60
68952;BMP180;56000;51.146;17.112;2022-12-07T13:33:50;99510.00;;;4.50
68952;BMP180;56000;51.146;17.112;2022-12-07T13:36:25;99509.60;;;4.50
68952;BMP180;56000;51.146;17.112;2022-12-07T13:39:00;99517.80;;;4.46
68952;BMP180;56000;51.146;17.112;2022-12-07T13:41:44;99523.60;;;4.40
68952;BMP180;56000;51.146;17.112;2022-12-07T13:44:19;99515.80;;;4.40
68952;BMP180;56000;51.146;17.112;2022-12-07T13:47:03;99517.80;;;4.40
68952;BMP180;56000;51.146;17.112;2022-12-07T13:49:49;99521.40;;;4.40
68952;BMP180;56000;51.146;17.112;2022-12-07T13:52:27;99514.00;;;4.40
68952;BMP180;56000;51.146;17.112;2022-12-07T13:55:15;99510.00;;;4.40
68952;BMP180;56000;51.146;17.112;2022-12-07T13:57:51;99514.00;;;4.40
68952;BMP180;56000;51.146;17.112;2022-12-07T14:00:27;99513.20;;;4.40
68952;BMP180;56000;51.146;17.112;2022-12-07T14:03:25;99509.00;;;4.40
68952;BMP180;56000;51.146;17.112;2022-12-07T14:06:22;99511.80;;;4.40
68952;BMP180;56000;51.146;17.112;2022-12-07T14:09:20;99500.40;;;4.40
68952;BMP180;56000;51.146;17.112;2022-12-07T14:11:56;99500.80;;;4.30
68952;BMP180;56000;51.146;17.112;2022-12-07T14:14:31;99498.80;;;4.30
68952;BMP180;56000;51.146;17.112;2022-12-07T14:17:20;99499.80;;;4.30
68952;BMP180;56000;51.146;17.112;2022-12-07T14:19:56;99497.40;;;4.30
68952;BMP180;56000;51.146;17.112;2022-12-07T14:22:35;99493.40;;;4.30
68952;BMP180;56000;51.146;17.112;2022-12-07T14:25:26;99495.20;;;4.30
68952;BMP180;56000;51.146;17.112;2022-12-07T14:28:01;99501.20;;;4.38
68952;BMP180;56000;51.146;17.112;2022-12-07T14:30:35;99501.20;;;4.40
68952;BMP180;56000;51.146;17.112;2022-12-07T14:33:09;99496.60;;;4.38
68952;BMP180;56000;51.146;17.112;2022-12-07T14:35:42;99499.60;;;4.30
68952;BMP180;56000;51.146;17.112;2022-12-07T14:38:15;99502.00;;;4.30
68952;BMP180;56000;51.146;17.112;2022-12-07T14:40:50;99506.40;;;4.30
68952;BMP180;56000;51.146;17.112;2022-12-07T14:43:23;99499.80;;;4.20
68952;BMP180;56000;51.146;17.112;2022-12-07T14:45:56;99509.20;;;4.20
68952;BMP180;56000;51.146;17.112;2022-12-07T14:48:29;99513.60;;;4.10
68952;BMP180;56000;51.146;17.112;2022-12-07T14:51:22;99517.40;;;4.10
68952;BMP180;56000;51.146;17.112;2022-12-07T14:54:19;99510.00;;;4.08
68952;BMP180;56000;51.146;17.112;2022-12-07T14:56:52;99513.20;;;4.00
68952;BMP180;56000;51.146;17.112;2022-12-07T14:59:25;99515.40;;;4.00
68952;BMP180;56000;51.146;17.112;2022-12-07T15:01:58;99518.40;;;3.92
68952;BMP180;56000;51.146;17.112;2022-12-07T15:04:32;99520.20;;;3.90
68952;BMP180;56000;51.146;17.112;2022-12-07T15:07:09;99525.20;;;3.90
68952;BMP180;56000;51.146;17.112;2022-12-07T15:09:43;99526.40;;;3.90
68952;BMP180;56000;51.146;17.112;2022-12-07T15:12:16;99531.20;;;3.80
68952;BMP180;56000;51.146;17.112;2022-12-07T15:14:49;99532.60;;;3.80
68952;BMP180;56000;51.146;17.112;2022-12-07T15:17:21;99532.00;;;3.80
68952;BMP180;56000;51.146;17.112;2022-12-07T15:20:00;99536.00;;;3.80